sensor_id;sensor_type;location;lat;lon;timestamp;temperature;humidity
15949;DHT22;14848;50.954;6.642;2023-03-14T00:00:31;10.90;99.90
15949;DHT22;14848;50.954;6.642;2023-03-14T00:02:56;10.90;99.90
15949;DHT22;14848;50.954;6.642;2023-03-14T00:05:22;11.40;99.90
15949;DHT22;14848;50.954;6.642;2023-03-14T00:07:48;11.20;99.90
15949;DHT22;14848;50.954;6.642;2023-03-14T00:10:14;11.30;99.90
15949;DHT22;14848;50.954;6.642;2023-03-14T00:12:41;11.30;99.90
15949;DHT22;14848;50.954;6.642;2023-03-14T00:15:08;11.50;99.90
15949;DHT22;14848;50.954;6.642;2023-03-14T00:17:35;11.50;99.90
15949;DHT22;14848;50.954;6.642;2023-03-14T00:20:02;11.30;99.90
15949;DHT22;14848;50.954;6.642;2023-03-14T00:22:30;11.90;99.90
15949;DHT22;14848;50.954;6.642;2023-03-14T00:24:56;11.80;99.90
15949;DHT22;14848;50.954;6.642;2023-03-14T00:27:21;11.90;99.90
15949;DHT22;14848;50.954;6.642;2023-03-14T00:29:47;11.80;99.90
15949;DHT22;14848;50.954;6.642;2023-03-14T00:32:13;11.90;99.90
15949;DHT22;14848;50.954;6.642;2023-03-14T00:34:38;11.90;99.90
15949;DHT22;14848;50.954;6.642;2023-03-14T00:37:05;12.00;99.90
15949;DHT22;14848;50.954;6.642;2023-03-14T00:39:31;12.00;99.90
15949;DHT22;14848;50.954;6.642;2023-03-14T00:41:56;12.00;99.90
15949;DHT22;14848;50.954;6.642;2023-03-14T00:54:06;10.80;99.90
15949;DHT22;14848;50.954;6.642;2023-03-14T01:13:49;9.80;99.90
15949;DHT22;14848;50.954;6.642;2023-03-14T03:17:22;9.50;99.90
15949;DHT22;14848;50.954;6.642;2023-03-14T03:19:48;9.50;99.90
15949;DHT22;14848;50.954;6.642;2023-03-14T03:22:13;9.40;99.90
15949;DHT22;14848;50.954;6.642;2023-03-14T03:24:39;9.30;99.90
15949;DHT22;14848;50.954;6.642;2023-03-14T03:27:05;9.20;99.90
15949;DHT22;14848;50.954;6.642;2023-03-14T03:29:30;9.10;99.90
15949;DHT22;14848;50.954;6.642;2023-03-14T03:31:56;9.10;99.90
15949;DHT22;14848;50.954;6.642;2023-03-14T03:34:22;9.00;99.90
15949;DHT22;14848;50.954;6.642;2023-03-14T03:36:47;8.90;99.90
15949;DHT22;14848;50.954;6.642;2023-03-14T03:39:13;8.90;99.90
15949;DHT22;14848;50.954;6.642;2023-03-14T03:41:39;8.90;99.90
15949;DHT22;14848;50.954;6.642;2023-03-14T03:44:05;8.90;99.90
15949;DHT22;14848;50.954;6.642;2023-03-14T03:46:31;8.90;99.90
15949;DHT22;14848;50.954;6.642;2023-03-14T03:48:58;8.90;99.90
15949;DHT22;14848;50.954;6.642;2023-03-14T03:51:24;9.00;99.90
15949;DHT22;14848;50.954;6.642;2023-03-14T03:53:50;9.00;99.90
15949;DHT22;14848;50.954;6.642;2023-03-14T03:56:16;9.10;99.90
15949;DHT22;14848;50.954;6.642;2023-03-14T03:58:42;9.20;99.90
15949;DHT22;14848;50.954;6.642;2023-03-14T04:01:08;9.30;99.90
15949;DHT22;14848;50.954;6.642;2023-03-14T04:03:34;9.40;99.90
15949;DHT22;14848;50.954;6.642;2023-03-14T04:06:03;9.50;99.90
15949;DHT22;14848;50.954;6.642;2023-03-14T04:08:29;9.50;99.90
15949;DHT22;14848;50.954;6.642;2023-03-14T04:10:59;9.50;99.90
15949;DHT22;14848;50.954;6.642;2023-03-14T04:13:26;9.50;99.90
15949;DHT22;14848;50.954;6.642;2023-03-14T04:15:53;9.50;99.90
15949;DHT22;14848;50.954;6.642;2023-03-14T04:18:19;9.50;99.90
15949;DHT22;14848;50.954;6.642;2023-03-14T04:20:45;9.50;99.90
15949;DHT22;14848;50.954;6.642;2023-03-14T04:23:11;9.50;99.90
15949;DHT22;14848;50.954;6.642;2023-03-14T04:25:37;9.50;99.90
15949;DHT22;14848;50.954;6.642;2023-03-14T04:28:03;9.50;99.90
15949;DHT22;14848;50.954;6.642;2023-03-14T04:30:29;9.50;99.90
15949;DHT22;14848;50.954;6.642;2023-03-14T04:32:55;9.50;99.90
15949;DHT22;14848;50.954;6.642;2023-03-14T04:35:21;9.50;99.90
15949;DHT22;14848;50.954;6.642;2023-03-14T04:37:46;9.50;99.90
15949;DHT22;14848;50.954;6.642;2023-03-14T04:40:14;9.60;99.90
15949;DHT22;14848;50.954;6.642;2023-03-14T04:42:40;9.60;99.90
15949;DHT22;14848;50.954;6.642;2023-03-14T04:45:07;9.60;99.90
15949;DHT22;14848;50.954;6.642;2023-03-14T04:47:32;9.60;99.90
15949;DHT22;14848;50.954;6.642;2023-03-14T04:49:58;9.60;99.90
15949;DHT22;14848;50.954;6.642;2023-03-14T04:52:24;9.60;99.90
15949;DHT22;14848;50.954;6.642;2023-03-14T04:54:49;9.50;99.90
15949;DHT22;14848;50.954;6.642;2023-03-14T04:57:15;9.50;99.90
15949;DHT22;14848;50.954;6.642;2023-03-14T04:59:41;9.50;99.90
15949;DHT22;14848;50.954;6.642;2023-03-14T05:02:06;9.50;99.90
15949;DHT22;14848;50.954;6.642;2023-03-14T05:04:32;9.50;99.90
15949;DHT22;14848;50.954;6.642;2023-03-14T05:06:59;9.60;99.90
15949;DHT22;14848;50.954;6.642;2023-03-14T05:09:25;9.50;99.90
15949;DHT22;14848;50.954;6.642;2023-03-14T05:11:51;9.50;99.90
15949;DHT22;14848;50.954;6.642;2023-03-14T05:14:17;9.80;99.90
15949;DHT22;14848;50.954;6.642;2023-03-14T05:16:42;9.50;99.90
15949;DHT22;14848;50.954;6.642;2023-03-14T05:21:34;9.50;99.90
15949;DHT22;14848;50.954;6.642;2023-03-14T05:24:00;9.50;99.90
15949;DHT22;14848;50.954;6.642;2023-03-14T05:28:51;9.60;99.90
15949;DHT22;14848;50.954;6.642;2023-03-14T05:31:17;9.60;99.90
15949;DHT22;14848;50.954;6.642;2023-03-14T05:33:43;9.60;99.90
15949;DHT22;14848;50.954;6.642;2023-03-14T05:36:08;9.60;99.90
15949;DHT22;14848;50.954;6.642;2023-03-14T05:38:34;9.60;99.90
15949;DHT22;14848;50.954;6.642;2023-03-14T05:41:00;9.60;99.90
15949;DHT22;14848;50.954;6.642;2023-03-14T05:43:25;9.70;99.90
15949;DHT22;14848;50.954;6.642;2023-03-14T05:45:51;9.70;99.90
15949;DHT22;14848;50.954;6.642;2023-03-14T05:48:16;9.60;99.90
15949;DHT22;14848;50.954;6.642;2023-03-14T05:50:42;9.60;99.90
15949;DHT22;14848;50.954;6.642;2023-03-14T05:53:08;9.60;99.90
15949;DHT22;14848;50.954;6.642;2023-03-14T05:55:34;9.60;99.90
15949;DHT22;14848;50.954;6.642;2023-03-14T05:57:59;9.60;99.90
15949;DHT22;14848;50.954;6.642;2023-03-14T06:00:25;9.60;99.90
15949;DHT22;14848;50.954;6.642;2023-03-14T06:02:51;9.60;99.90
15949;DHT22;14848;50.954;6.642;2023-03-14T06:05:16;9.60;99.90
15949;DHT22;14848;50.954;6.642;2023-03-14T06:07:42;9.50;99.90
15949;DHT22;14848;50.954;6.642;2023-03-14T06:10:08;9.50;99.90
15949;DHT22;14848;50.954;6.642;2023-03-14T06:12:34;9.50;99.90
15949;DHT22;14848;50.954;6.642;2023-03-14T06:15:00;9.50;99.90
15949;DHT22;14848;50.954;6.642;2023-03-14T06:17:25;9.50;99.90
15949;DHT22;14848;50.954;6.642;2023-03-14T06:19:51;9.50;99.90
15949;DHT22;14848;50.954;6.642;2023-03-14T06:22:16;9.60;99.90
15949;DHT22;14848;50.954;6.642;2023-03-14T06:24:42;9.60;99.90
15949;DHT22;14848;50.954;6.642;2023-03-14T06:27:08;9.70;99.90
15949;DHT22;14848;50.954;6.642;2023-03-14T06:29:33;9.70;99.90
15949;DHT22;14848;50.954;6.642;2023-03-14T06:31:59;9.70;99.90
15949;DHT22;14848;50.954;6.642;2023-03-14T06:34:25;9.80;99.90
15949;DHT22;14848;50.954;6.642;2023-03-14T06:36:51;9.90;99.90
15949;DHT22;14848;50.954;6.642;2023-03-14T06:39:16;9.90;99.90
15949;DHT22;14848;50.954;6.642;2023-03-14T06:41:42;10.00;99.90
15949;DHT22;14848;50.954;6.642;2023-03-14T06:44:07;10.10;99.90
15949;DHT22;14848;50.954;6.642;2023-03-14T06:46:33;10.10;99.90
15949;DHT22;14848;50.954;6.642;2023-03-14T06:48:59;10.10;99.90
15949;DHT22;14848;50.954;6.642;2023-03-14T06:51:24;10.20;99.90
15949;DHT22;14848;50.954;6.642;2023-03-14T06:53:50;10.20;99.90
15949;DHT22;14848;50.954;6.642;2023-03-14T06:56:16;10.20;99.90
15949;DHT22;14848;50.954;6.642;2023-03-14T06:58:41;10.20;99.90
15949;DHT22;14848;50.954;6.642;2023-03-14T07:01:20;10.20;99.90
15949;DHT22;14848;50.954;6.642;2023-03-14T07:03:46;10.30;99.90
15949;DHT22;14848;50.954;6.642;2023-03-14T07:06:12;10.40;99.90
15949;DHT22;14848;50.954;6.642;2023-03-14T07:08:37;10.50;99.90
15949;DHT22;14848;50.954;6.642;2023-03-14T07:11:05;10.50;99.90
15949;DHT22;14848;50.954;6.642;2023-03-14T07:13:30;10.60;99.90
15949;DHT22;14848;50.954;6.642;2023-03-14T07:15:56;10.60;99.90
15949;DHT22;14848;50.954;6.642;2023-03-14T07:18:22;10.70;99.90
15949;DHT22;14848;50.954;6.642;2023-03-14T07:20:47;10.70;99.90
15949;DHT22;14848;50.954;6.642;2023-03-14T07:23:13;10.80;99.90
15949;DHT22;14848;50.954;6.642;2023-03-14T07:25:39;10.90;99.90
15949;DHT22;14848;50.954;6.642;2023-03-14T07:28:04;11.00;99.90
15949;DHT22;14848;50.954;6.642;2023-03-14T07:30:30;11.00;99.90
15949;DHT22;14848;50.954;6.642;2023-03-14T07:32:56;11.00;99.90
15949;DHT22;14848;50.954;6.642;2023-03-14T07:35:22;11.10;99.90
15949;DHT22;14848;50.954;6.642;2023-03-14T07:37:47;11.10;99.90
15949;DHT22;14848;50.954;6.642;2023-03-14T07:40:13;11.10;99.90
15949;DHT22;14848;50.954;6.642;2023-03-14T07:42:41;11.10;99.90
15949;DHT22;14848;50.954;6.642;2023-03-14T07:45:08;11.20;99.90
15949;DHT22;14848;50.954;6.642;2023-03-14T07:47:35;11.30;99.90
15949;DHT22;14848;50.954;6.642;2023-03-14T07:50:01;11.40;99.90
15949;DHT22;14848;50.954;6.642;2023-03-14T07:52:26;11.40;99.90
15949;DHT22;14848;50.954;6.642;2023-03-14T07:54:53;11.40;99.90
15949;DHT22;14848;50.954;6.642;2023-03-14T07:57:19;11.50;99.90
15949;DHT22;14848;50.954;6.642;2023-03-14T07:59:44;11.50;99.90
15949;DHT22;14848;50.954;6.642;2023-03-14T08:02:11;11.50;99.90
15949;DHT22;14848;50.954;6.642;2023-03-14T08:04:37;11.50;99.90
15949;DHT22;14848;50.954;6.642;2023-03-14T08:07:04;11.50;99.90
15949;DHT22;14848;50.954;6.642;2023-03-14T08:09:29;11.60;99.90
15949;DHT22;14848;50.954;6.642;2023-03-14T08:11:55;11.60;99.90
15949;DHT22;14848;50.954;6.642;2023-03-14T08:14:20;11.40;99.90
15949;DHT22;14848;50.954;6.642;2023-03-14T08:16:49;11.50;99.90
15949;DHT22;14848;50.954;6.642;2023-03-14T08:19:15;11.60;99.90
15949;DHT22;14848;50.954;6.642;2023-03-14T08:21:41;11.50;99.90
15949;DHT22;14848;50.954;6.642;2023-03-14T08:24:06;11.50;99.90
15949;DHT22;14848;50.954;6.642;2023-03-14T08:26:32;11.40;99.90
15949;DHT22;14848;50.954;6.642;2023-03-14T08:28:58;11.30;99.90
15949;DHT22;14848;50.954;6.642;2023-03-14T08:31:23;11.30;99.90
15949;DHT22;14848;50.954;6.642;2023-03-14T08:33:49;11.30;99.90
15949;DHT22;14848;50.954;6.642;2023-03-14T08:36:18;11.20;99.90
15949;DHT22;14848;50.954;6.642;2023-03-14T08:38:44;11.30;99.90
15949;DHT22;14848;50.954;6.642;2023-03-14T08:41:10;11.10;99.90
15949;DHT22;14848;50.954;6.642;2023-03-14T08:43:36;11.10;99.90
15949;DHT22;14848;50.954;6.642;2023-03-14T08:46:02;11.00;99.90
15949;DHT22;14848;50.954;6.642;2023-03-14T08:48:29;11.00;99.90
15949;DHT22;14848;50.954;6.642;2023-03-14T08:50:56;10.90;99.90
15949;DHT22;14848;50.954;6.642;2023-03-14T08:53:22;11.00;99.90
15949;DHT22;14848;50.954;6.642;2023-03-14T08:55:53;11.00;99.90
15949;DHT22;14848;50.954;6.642;2023-03-14T08:58:19;10.90;99.90
15949;DHT22;14848;50.954;6.642;2023-03-14T09:00:45;10.90;99.90
15949;DHT22;14848;50.954;6.642;2023-03-14T09:03:10;10.90;99.90
15949;DHT22;14848;50.954;6.642;2023-03-14T09:05:36;10.90;99.90
15949;DHT22;14848;50.954;6.642;2023-03-14T09:08:01;10.90;99.90
15949;DHT22;14848;50.954;6.642;2023-03-14T09:10:27;10.90;99.90
15949;DHT22;14848;50.954;6.642;2023-03-14T09:12:53;10.90;99.90
15949;DHT22;14848;50.954;6.642;2023-03-14T09:15:19;10.90;99.90
15949;DHT22;14848;50.954;6.642;2023-03-14T09:20:11;10.00;99.90
15949;DHT22;14848;50.954;6.642;2023-03-14T09:25:06;8.80;99.90
15949;DHT22;14848;50.954;6.642;2023-03-14T09:27:32;8.90;99.90
15949;DHT22;14848;50.954;6.642;2023-03-14T09:32:23;8.50;99.90
15949;DHT22;14848;50.954;6.642;2023-03-14T09:45:03;8.40;99.90
15949;DHT22;14848;50.954;6.642;2023-03-14T09:47:32;8.30;99.90
15949;DHT22;14848;50.954;6.642;2023-03-14T09:50:00;8.30;99.90
15949;DHT22;14848;50.954;6.642;2023-03-14T09:52:29;8.30;99.90
15949;DHT22;14848;50.954;6.642;2023-03-14T09:55:03;8.30;99.90
15949;DHT22;14848;50.954;6.642;2023-03-14T09:57:29;8.40;99.90
15949;DHT22;14848;50.954;6.642;2023-03-14T10:00:05;8.40;99.90
15949;DHT22;14848;50.954;6.642;2023-03-14T10:02:41;8.40;99.90
15949;DHT22;14848;50.954;6.642;2023-03-14T10:05:20;8.30;99.90
15949;DHT22;14848;50.954;6.642;2023-03-14T10:07:46;8.30;99.90
15949;DHT22;14848;50.954;6.642;2023-03-14T10:10:21;8.20;99.90
15949;DHT22;14848;50.954;6.642;2023-03-14T10:12:54;8.20;99.90
15949;DHT22;14848;50.954;6.642;2023-03-14T10:15:31;8.20;99.90
15949;DHT22;14848;50.954;6.642;2023-03-14T10:18:00;8.30;99.90
15949;DHT22;14848;50.954;6.642;2023-03-14T10:20:32;8.20;99.90
15949;DHT22;14848;50.954;6.642;2023-03-14T10:25:34;8.20;99.90
15949;DHT22;14848;50.954;6.642;2023-03-14T10:28:00;8.20;99.90
15949;DHT22;14848;50.954;6.642;2023-03-14T10:30:47;8.20;99.90
15949;DHT22;14848;50.954;6.642;2023-03-14T10:33:22;8.10;99.90
15949;DHT22;14848;50.954;6.642;2023-03-14T10:35:57;8.00;99.90
15949;DHT22;14848;50.954;6.642;2023-03-14T10:38:27;8.00;99.90
15949;DHT22;14848;50.954;6.642;2023-03-14T10:40:54;8.00;99.90
15949;DHT22;14848;50.954;6.642;2023-03-14T10:43:27;7.90;99.90
15949;DHT22;14848;50.954;6.642;2023-03-14T10:45:59;7.80;99.90
15949;DHT22;14848;50.954;6.642;2023-03-14T10:48:30;7.80;99.90
15949;DHT22;14848;50.954;6.642;2023-03-14T10:53:26;8.10;99.90
15949;DHT22;14848;50.954;6.642;2023-03-14T11:08:51;9.20;99.90
15949;DHT22;14848;50.954;6.642;2023-03-14T11:16:53;9.60;99.90
15949;DHT22;14848;50.954;6.642;2023-03-14T11:27:43;9.40;99.90
15949;DHT22;14848;50.954;6.642;2023-03-14T11:30:23;9.40;99.90
15949;DHT22;14848;50.954;6.642;2023-03-14T11:33:16;9.20;99.90
15949;DHT22;14848;50.954;6.642;2023-03-14T11:38:44;7.70;99.90
15949;DHT22;14848;50.954;6.642;2023-03-14T11:41:37;7.00;99.90
15949;DHT22;14848;50.954;6.642;2023-03-14T11:44:27;6.70;99.90
15949;DHT22;14848;50.954;6.642;2023-03-14T11:47:12;6.60;99.90
15949;DHT22;14848;50.954;6.642;2023-03-14T11:50:21;6.70;99.90
15949;DHT22;14848;50.954;6.642;2023-03-14T11:53:14;6.70;99.90
15949;DHT22;14848;50.954;6.642;2023-03-14T11:55:43;6.90;99.90
15949;DHT22;14848;50.954;6.642;2023-03-14T12:00:38;7.00;99.90
15949;DHT22;14848;50.954;6.642;2023-03-14T12:03:17;7.20;99.90
15949;DHT22;14848;50.954;6.642;2023-03-14T12:11:03;7.50;99.90
15949;DHT22;14848;50.954;6.642;2023-03-14T12:13:34;7.60;99.90
15949;DHT22;14848;50.954;6.642;2023-03-14T12:16:06;7.50;99.90
15949;DHT22;14848;50.954;6.642;2023-03-14T12:18:34;7.40;99.90
15949;DHT22;14848;50.954;6.642;2023-03-14T12:21:09;7.50;99.90
15949;DHT22;14848;50.954;6.642;2023-03-14T12:23:53;7.40;99.90
15949;DHT22;14848;50.954;6.642;2023-03-14T12:26:27;7.40;99.90
15949;DHT22;14848;50.954;6.642;2023-03-14T12:29:16;7.30;99.90
15949;DHT22;14848;50.954;6.642;2023-03-14T12:32:06;7.30;99.90
15949;DHT22;14848;50.954;6.642;2023-03-14T12:34:33;7.70;99.90
15949;DHT22;14848;50.954;6.642;2023-03-14T12:45:32;7.20;99.90
15949;DHT22;14848;50.954;6.642;2023-03-14T12:48:03;7.20;99.90
15949;DHT22;14848;50.954;6.642;2023-03-14T12:50:40;7.20;99.90
15949;DHT22;14848;50.954;6.642;2023-03-14T13:01:35;7.50;99.90
15949;DHT22;14848;50.954;6.642;2023-03-14T13:04:10;7.80;99.90
15949;DHT22;14848;50.954;6.642;2023-03-14T13:06:54;7.80;99.90
15949;DHT22;14848;50.954;6.642;2023-03-14T13:14:29;7.60;99.90
15949;DHT22;14848;50.954;6.642;2023-03-14T13:16:58;7.60;99.90
15949;DHT22;14848;50.954;6.642;2023-03-14T13:19:28;7.70;99.90
15949;DHT22;14848;50.954;6.642;2023-03-14T13:22:12;7.80;99.90
15949;DHT22;14848;50.954;6.642;2023-03-14T13:24:41;8.00;99.90
15949;DHT22;14848;50.954;6.642;2023-03-14T13:27:19;8.10;99.90
15949;DHT22;14848;50.954;6.642;2023-03-14T13:29:48;8.00;99.90
15949;DHT22;14848;50.954;6.642;2023-03-14T13:32:25;7.90;99.90
15949;DHT22;14848;50.954;6.642;2023-03-14T13:34:54;7.40;99.90
15949;DHT22;14848;50.954;6.642;2023-03-14T13:37:23;6.90;99.90
15949;DHT22;14848;50.954;6.642;2023-03-14T13:39:50;6.30;99.90
15949;DHT22;14848;50.954;6.642;2023-03-14T13:42:17;6.00;99.90
15949;DHT22;14848;50.954;6.642;2023-03-14T13:44:43;5.80;99.90
15949;DHT22;14848;50.954;6.642;2023-03-14T13:47:17;5.70;99.90
15949;DHT22;14848;50.954;6.642;2023-03-14T13:49:43;5.70;99.90
15949;DHT22;14848;50.954;6.642;2023-03-14T13:52:29;5.70;99.90
15949;DHT22;14848;50.954;6.642;2023-03-14T13:54:57;6.10;99.90
15949;DHT22;14848;50.954;6.642;2023-03-14T13:57:24;5.80;99.90
15949;DHT22;14848;50.954;6.642;2023-03-14T14:00:04;5.90;99.90
15949;DHT22;14848;50.954;6.642;2023-03-14T14:02:37;6.00;99.90
15949;DHT22;14848;50.954;6.642;2023-03-14T14:05:04;6.10;99.90
15949;DHT22;14848;50.954;6.642;2023-03-14T14:07:30;6.20;99.90
15949;DHT22;14848;50.954;6.642;2023-03-14T14:09:56;6.30;99.90
15949;DHT22;14848;50.954;6.642;2023-03-14T14:12:32;6.40;99.90
15949;DHT22;14848;50.954;6.642;2023-03-14T14:15:11;6.50;99.90
15949;DHT22;14848;50.954;6.642;2023-03-14T14:17:43;6.60;99.90
15949;DHT22;14848;50.954;6.642;2023-03-14T14:20:35;6.60;99.90
15949;DHT22;14848;50.954;6.642;2023-03-14T14:23:03;6.60;99.90
15949;DHT22;14848;50.954;6.642;2023-03-14T14:25:30;6.70;99.90
15949;DHT22;14848;50.954;6.642;2023-03-14T14:27:55;6.60;99.90
15949;DHT22;14848;50.954;6.642;2023-03-14T14:32:49;6.60;99.90
15949;DHT22;14848;50.954;6.642;2023-03-14T14:37:51;6.70;99.90
15949;DHT22;14848;50.954;6.642;2023-03-14T14:40:28;8.30;99.90
15949;DHT22;14848;50.954;6.642;2023-03-14T14:42:55;6.80;99.90
15949;DHT22;14848;50.954;6.642;2023-03-14T14:45:28;7.00;99.90
15949;DHT22;14848;50.954;6.642;2023-03-14T14:53:28;7.20;99.90
15949;DHT22;14848;50.954;6.642;2023-03-14T14:55:56;7.20;99.90
15949;DHT22;14848;50.954;6.642;2023-03-14T14:58:29;7.20;99.90
15949;DHT22;14848;50.954;6.642;2023-03-14T15:01:07;7.20;99.90
15949;DHT22;14848;50.954;6.642;2023-03-14T15:03:33;7.20;99.90
15949;DHT22;14848;50.954;6.642;2023-03-14T15:06:01;7.20;99.90
15949;DHT22;14848;50.954;6.642;2023-03-14T15:08:27;7.20;99.90
15949;DHT22;14848;50.954;6.642;2023-03-14T15:10:54;7.20;99.90
15949;DHT22;14848;50.954;6.642;2023-03-14T15:13:20;7.40;99.90
15949;DHT22;14848;50.954;6.642;2023-03-14T15:15:49;7.20;99.90
15949;DHT22;14848;50.954;6.642;2023-03-14T15:18:23;7.20;99.90
15949;DHT22;14848;50.954;6.642;2023-03-14T15:20:49;7.20;99.90
15949;DHT22;14848;50.954;6.642;2023-03-14T15:23:17;7.30;99.90
15949;DHT22;14848;50.954;6.642;2023-03-14T15:25:42;7.30;99.90
15949;DHT22;14848;50.954;6.642;2023-03-14T15:28:21;7.20;99.90
15949;DHT22;14848;50.954;6.642;2023-03-14T15:30:52;7.10;99.90
15949;DHT22;14848;50.954;6.642;2023-03-14T15:33:19;7.20;99.90
15949;DHT22;14848;50.954;6.642;2023-03-14T15:35:45;7.20;99.90
15949;DHT22;14848;50.954;6.642;2023-03-14T15:38:15;7.30;99.90
15949;DHT22;14848;50.954;6.642;2023-03-14T15:40:41;7.20;99.90
15949;DHT22;14848;50.954;6.642;2023-03-14T15:43:07;7.30;99.90
15949;DHT22;14848;50.954;6.642;2023-03-14T15:45:34;7.30;99.90
15949;DHT22;14848;50.954;6.642;2023-03-14T15:47:59;7.30;99.90
15949;DHT22;14848;50.954;6.642;2023-03-14T15:50:25;7.30;99.90
15949;DHT22;14848;50.954;6.642;2023-03-14T15:52:51;7.30;99.90
15949;DHT22;14848;50.954;6.642;2023-03-14T15:55:17;7.30;99.90
15949;DHT22;14848;50.954;6.642;2023-03-14T15:57:44;7.30;1.00
15949;DHT22;14848;50.954;6.642;2023-03-14T16:00:15;7.30;99.90
15949;DHT22;14848;50.954;6.642;2023-03-14T16:02:43;7.30;99.90
15949;DHT22;14848;50.954;6.642;2023-03-14T16:05:11;7.30;99.90
15949;DHT22;14848;50.954;6.642;2023-03-14T16:07:37;7.30;99.90
15949;DHT22;14848;50.954;6.642;2023-03-14T16:10:04;7.20;99.90
15949;DHT22;14848;50.954;6.642;2023-03-14T16:12:31;7.20;99.90
15949;DHT22;14848;50.954;6.642;2023-03-14T16:14:57;7.10;99.90
15949;DHT22;14848;50.954;6.642;2023-03-14T16:17:22;7.10;99.90
15949;DHT22;14848;50.954;6.642;2023-03-14T16:19:48;7.10;99.90
15949;DHT22;14848;50.954;6.642;2023-03-14T16:22:13;8.00;99.90
15949;DHT22;14848;50.954;6.642;2023-03-14T16:24:39;7.00;99.90
15949;DHT22;14848;50.954;6.642;2023-03-14T16:27:05;7.00;99.90
15949;DHT22;14848;50.954;6.642;2023-03-14T16:29:30;7.00;99.90
15949;DHT22;14848;50.954;6.642;2023-03-14T16:31:56;7.00;99.90
15949;DHT22;14848;50.954;6.642;2023-03-14T16:34:22;6.80;99.90
15949;DHT22;14848;50.954;6.642;2023-03-14T16:36:48;7.00;99.90
15949;DHT22;14848;50.954;6.642;2023-03-14T16:39:16;7.00;99.90
15949;DHT22;14848;50.954;6.642;2023-03-14T16:41:42;6.90;99.90
15949;DHT22;14848;50.954;6.642;2023-03-14T16:44:08;7.00;99.90
15949;DHT22;14848;50.954;6.642;2023-03-14T16:46:33;7.00;99.90
15949;DHT22;14848;50.954;6.642;2023-03-14T16:49:00;6.90;99.90
15949;DHT22;14848;50.954;6.642;2023-03-14T16:51:26;6.90;99.90
15949;DHT22;14848;50.954;6.642;2023-03-14T16:53:52;6.90;99.90
15949;DHT22;14848;50.954;6.642;2023-03-14T16:56:18;6.90;99.90
15949;DHT22;14848;50.954;6.642;2023-03-14T16:58:44;6.80;99.90
15949;DHT22;14848;50.954;6.642;2023-03-14T17:01:11;6.80;99.90
15949;DHT22;14848;50.954;6.642;2023-03-14T17:03:41;6.80;99.90
15949;DHT22;14848;50.954;6.642;2023-03-14T17:06:07;6.70;99.90
15949;DHT22;14848;50.954;6.642;2023-03-14T17:08:34;6.70;99.90
15949;DHT22;14848;50.954;6.642;2023-03-14T17:11:00;6.70;99.90
15949;DHT22;14848;50.954;6.642;2023-03-14T17:13:26;6.60;99.90
15949;DHT22;14848;50.954;6.642;2023-03-14T17:15:57;6.60;99.90
15949;DHT22;14848;50.954;6.642;2023-03-14T17:18:24;6.60;99.90
15949;DHT22;14848;50.954;6.642;2023-03-14T17:20:51;6.60;99.90
15949;DHT22;14848;50.954;6.642;2023-03-14T17:23:17;6.60;99.90
15949;DHT22;14848;50.954;6.642;2023-03-14T17:25:46;6.60;99.90
15949;DHT22;14848;50.954;6.642;2023-03-14T17:28:11;6.50;99.90
15949;DHT22;14848;50.954;6.642;2023-03-14T17:30:37;6.50;99.90
15949;DHT22;14848;50.954;6.642;2023-03-14T17:33:03;6.40;99.90
15949;DHT22;14848;50.954;6.642;2023-03-14T17:35:30;6.40;99.90
15949;DHT22;14848;50.954;6.642;2023-03-14T17:37:56;6.40;99.90
15949;DHT22;14848;50.954;6.642;2023-03-14T17:40:22;6.30;99.90
15949;DHT22;14848;50.954;6.642;2023-03-14T17:42:48;6.30;99.90
15949;DHT22;14848;50.954;6.642;2023-03-14T17:45:13;6.30;99.90
15949;DHT22;14848;50.954;6.642;2023-03-14T17:47:39;6.30;99.90
15949;DHT22;14848;50.954;6.642;2023-03-14T17:50:04;6.30;99.90
15949;DHT22;14848;50.954;6.642;2023-03-14T17:52:34;6.20;99.90
15949;DHT22;14848;50.954;6.642;2023-03-14T17:55:00;6.20;99.90
15949;DHT22;14848;50.954;6.642;2023-03-14T17:57:27;6.10;99.90
15949;DHT22;14848;50.954;6.642;2023-03-14T17:59:53;6.10;99.90
15949;DHT22;14848;50.954;6.642;2023-03-14T18:02:20;6.10;99.90
15949;DHT22;14848;50.954;6.642;2023-03-14T18:04:46;6.00;99.90
15949;DHT22;14848;50.954;6.642;2023-03-14T18:07:12;6.00;99.90
15949;DHT22;14848;50.954;6.642;2023-03-14T18:09:40;5.90;99.90
15949;DHT22;14848;50.954;6.642;2023-03-14T18:12:07;5.90;99.90
15949;DHT22;14848;50.954;6.642;2023-03-14T18:14:34;5.80;99.90
15949;DHT22;14848;50.954;6.642;2023-03-14T18:16:59;5.80;99.90
15949;DHT22;14848;50.954;6.642;2023-03-14T18:19:25;5.80;99.90
15949;DHT22;14848;50.954;6.642;2023-03-14T18:21:50;5.70;99.90
15949;DHT22;14848;50.954;6.642;2023-03-14T18:24:18;5.90;99.90
15949;DHT22;14848;50.954;6.642;2023-03-14T18:26:44;5.60;99.90
15949;DHT22;14848;50.954;6.642;2023-03-14T18:29:09;5.60;99.90
15949;DHT22;14848;50.954;6.642;2023-03-14T18:31:39;5.80;99.90
15949;DHT22;14848;50.954;6.642;2023-03-14T18:34:05;5.60;99.90
15949;DHT22;14848;50.954;6.642;2023-03-14T18:36:31;5.50;99.90
15949;DHT22;14848;50.954;6.642;2023-03-14T18:38:56;5.50;99.90
15949;DHT22;14848;50.954;6.642;2023-03-14T18:41:23;5.50;99.90
15949;DHT22;14848;50.954;6.642;2023-03-14T18:43:49;5.50;99.90
15949;DHT22;14848;50.954;6.642;2023-03-14T18:46:17;5.50;99.90
15949;DHT22;14848;50.954;6.642;2023-03-14T18:48:45;5.40;99.90
15949;DHT22;14848;50.954;6.642;2023-03-14T18:51:12;5.40;99.90
15949;DHT22;14848;50.954;6.642;2023-03-14T18:53:42;5.40;99.90
15949;DHT22;14848;50.954;6.642;2023-03-14T18:56:08;5.30;99.90
15949;DHT22;14848;50.954;6.642;2023-03-14T18:58:36;5.30;99.90
15949;DHT22;14848;50.954;6.642;2023-03-14T19:01:03;5.40;99.90
15949;DHT22;14848;50.954;6.642;2023-03-14T19:59:39;4.90;99.90
15949;DHT22;14848;50.954;6.642;2023-03-14T20:02:04;4.80;99.90
15949;DHT22;14848;50.954;6.642;2023-03-14T20:04:30;4.50;99.90
15949;DHT22;14848;50.954;6.642;2023-03-14T20:06:58;4.50;99.90
15949;DHT22;14848;50.954;6.642;2023-03-14T20:09:23;4.50;99.90
15949;DHT22;14848;50.954;6.642;2023-03-14T20:11:49;4.50;99.90
15949;DHT22;14848;50.954;6.642;2023-03-14T20:14:15;4.40;99.90
15949;DHT22;14848;50.954;6.642;2023-03-14T20:16:41;4.30;99.90
15949;DHT22;14848;50.954;6.642;2023-03-14T20:19:09;4.30;99.90
15949;DHT22;14848;50.954;6.642;2023-03-14T20:21:35;4.20;99.90
15949;DHT22;14848;50.954;6.642;2023-03-14T20:36:14;4.00;99.90
15949;DHT22;14848;50.954;6.642;2023-03-14T20:55:47;3.50;99.90
15949;DHT22;14848;50.954;6.642;2023-03-14T21:37:15;2.70;99.90
15949;DHT22;14848;50.954;6.642;2023-03-14T22:01:54;2.40;99.90
15949;DHT22;14848;50.954;6.642;2023-03-14T22:04:21;2.20;99.90
